sensor_id;sensor_type;location;lat;lon;timestamp;P1;durP1;ratioP1;P2;durP2;ratioP2
57667;SDS011;43499;52.366;12.912;2022-09-09T00:00:35;14.05;;;9.77;;
57667;SDS011;43499;52.366;12.912;2022-09-09T00:02:46;15.38;;;9.48;;
57667;SDS011;43499;52.366;12.912;2022-09-09T00:05:37;13.60;;;8.23;;
57667;SDS011;43499;52.366;12.912;2022-09-09T00:08:20;13.85;;;8.98;;
57667;SDS011;43499;52.366;12.912;2022-09-09T00:09:26;11.90;;;8.65;;
57667;SDS011;43499;52.366;12.912;2022-09-09T00:10:31;17.50;;;9.82;;
57667;SDS011;43499;52.366;12.912;2022-09-09T00:13:30;13.45;;;9.15;;
57667;SDS011;43499;52.366;12.912;2022-09-09T00:14:49;12.98;;;8.63;;
57667;SDS011;43499;52.366;12.912;2022-09-09T00:15:58;14.48;;;8.57;;
57667;SDS011;43499;52.366;12.912;2022-09-09T00:17:04;15.30;;;9.15;;
57667;SDS011;43499;52.366;12.912;2022-09-09T00:18:20;16.05;;;9.18;;
57667;SDS011;43499;52.366;12.912;2022-09-09T00:21:15;12.48;;;8.25;;
57667;SDS011;43499;52.366;12.912;2022-09-09T00:22:18;15.20;;;10.13;;
57667;SDS011;43499;52.366;12.912;2022-09-09T00:23:25;14.95;;;10.18;;
57667;SDS011;43499;52.366;12.912;2022-09-09T00:24:34;16.33;;;9.70;;
57667;SDS011;43499;52.366;12.912;2022-09-09T00:27:01;12.93;;;8.25;;
57667;SDS011;43499;52.366;12.912;2022-09-09T00:28:12;14.80;;;8.40;;
57667;SDS011;43499;52.366;12.912;2022-09-09T00:30:47;13.68;;;9.20;;
57667;SDS011;43499;52.366;12.912;2022-09-09T00:31:49;13.07;;;8.65;;
57667;SDS011;43499;52.366;12.912;2022-09-09T00:32:53;14.65;;;8.52;;
57667;SDS011;43499;52.366;12.912;2022-09-09T00:34:00;15.63;;;8.82;;
57667;SDS011;43499;52.366;12.912;2022-09-09T00:35:23;14.43;;;9.18;;
57667;SDS011;43499;52.366;12.912;2022-09-09T00:36:28;12.95;;;8.13;;
57667;SDS011;43499;52.366;12.912;2022-09-09T00:37:34;10.38;;;7.45;;
57667;SDS011;43499;52.366;12.912;2022-09-09T00:38:45;11.38;;;7.97;;
57667;SDS011;43499;52.366;12.912;2022-09-09T00:39:50;14.25;;;8.48;;
57667;SDS011;43499;52.366;12.912;2022-09-09T00:41:00;12.57;;;7.88;;
57667;SDS011;43499;52.366;12.912;2022-09-09T00:42:23;13.63;;;8.00;;
57667;SDS011;43499;52.366;12.912;2022-09-09T00:43:38;15.38;;;8.75;;
57667;SDS011;43499;52.366;12.912;2022-09-09T00:44:56;15.32;;;8.57;;
57667;SDS011;43499;52.366;12.912;2022-09-09T00:47:52;14.50;;;8.77;;
57667;SDS011;43499;52.366;12.912;2022-09-09T00:49:00;14.45;;;8.55;;
57667;SDS011;43499;52.366;12.912;2022-09-09T00:58:32;12.30;;;8.25;;
57667;SDS011;43499;52.366;12.912;2022-09-09T00:59:52;13.15;;;8.57;;
57667;SDS011;43499;52.366;12.912;2022-09-09T01:01:37;18.45;;;8.40;;
57667;SDS011;43499;52.366;12.912;2022-09-09T01:03:57;12.43;;;8.43;;
57667;SDS011;43499;52.366;12.912;2022-09-09T01:05:02;15.05;;;8.68;;
57667;SDS011;43499;52.366;12.912;2022-09-09T01:07:23;14.07;;;8.40;;
57667;SDS011;43499;52.366;12.912;2022-09-09T01:09:59;16.98;;;8.35;;
57667;SDS011;43499;52.366;12.912;2022-09-09T01:11:10;13.52;;;8.48;;
57667;SDS011;43499;52.366;12.912;2022-09-09T01:12:33;12.90;;;8.20;;
57667;SDS011;43499;52.366;12.912;2022-09-09T01:13:41;11.13;;;8.13;;
57667;SDS011;43499;52.366;12.912;2022-09-09T01:15:12;16.48;;;8.45;;
57667;SDS011;43499;52.366;12.912;2022-09-09T01:16:36;12.23;;;8.00;;
57667;SDS011;43499;52.366;12.912;2022-09-09T01:18:04;14.80;;;9.15;;
57667;SDS011;43499;52.366;12.912;2022-09-09T01:19:19;14.63;;;8.77;;
57667;SDS011;43499;52.366;12.912;2022-09-09T01:22:36;13.73;;;8.60;;
57667;SDS011;43499;52.366;12.912;2022-09-09T01:27:18;13.00;;;9.13;;
57667;SDS011;43499;52.366;12.912;2022-09-09T01:28:25;13.60;;;8.73;;
57667;SDS011;43499;52.366;12.912;2022-09-09T01:30:43;14.27;;;9.13;;
57667;SDS011;43499;52.366;12.912;2022-09-09T01:32:37;13.88;;;8.75;;
57667;SDS011;43499;52.366;12.912;2022-09-09T01:33:45;12.40;;;8.50;;
57667;SDS011;43499;52.366;12.912;2022-09-09T01:34:47;13.77;;;9.65;;
57667;SDS011;43499;52.366;12.912;2022-09-09T01:35:50;22.67;;;9.55;;
57667;SDS011;43499;52.366;12.912;2022-09-09T01:36:58;16.50;;;9.60;;
57667;SDS011;43499;52.366;12.912;2022-09-09T01:38:07;15.00;;;9.02;;
57667;SDS011;43499;52.366;12.912;2022-09-09T01:39:09;14.00;;;8.65;;
57667;SDS011;43499;52.366;12.912;2022-09-09T01:40:11;15.27;;;8.85;;
57667;SDS011;43499;52.366;12.912;2022-09-09T01:41:13;13.05;;;8.52;;
57667;SDS011;43499;52.366;12.912;2022-09-09T01:42:23;18.63;;;9.95;;
57667;SDS011;43499;52.366;12.912;2022-09-09T01:43:54;12.73;;;8.80;;
57667;SDS011;43499;52.366;12.912;2022-09-09T01:44:59;14.32;;;8.68;;
57667;SDS011;43499;52.366;12.912;2022-09-09T01:46:01;16.73;;;10.20;;
57667;SDS011;43499;52.366;12.912;2022-09-09T01:47:11;13.32;;;9.30;;
57667;SDS011;43499;52.366;12.912;2022-09-09T01:48:33;17.70;;;9.70;;
57667;SDS011;43499;52.366;12.912;2022-09-09T01:49:58;19.02;;;9.82;;
57667;SDS011;43499;52.366;12.912;2022-09-09T01:51:20;15.63;;;10.50;;
57667;SDS011;43499;52.366;12.912;2022-09-09T01:52:28;16.55;;;9.73;;
57667;SDS011;43499;52.366;12.912;2022-09-09T01:53:37;18.88;;;10.10;;
57667;SDS011;43499;52.366;12.912;2022-09-09T01:54:52;18.35;;;10.23;;
57667;SDS011;43499;52.366;12.912;2022-09-09T01:56:18;18.98;;;10.00;;
57667;SDS011;43499;52.366;12.912;2022-09-09T01:57:31;16.63;;;8.95;;
57667;SDS011;43499;52.366;12.912;2022-09-09T02:00:29;16.55;;;9.52;;
57667;SDS011;43499;52.366;12.912;2022-09-09T02:07:46;17.95;;;10.35;;
57667;SDS011;43499;52.366;12.912;2022-09-09T02:09:09;17.00;;;10.13;;
57667;SDS011;43499;52.366;12.912;2022-09-09T02:11:28;17.08;;;9.60;;
57667;SDS011;43499;52.366;12.912;2022-09-09T02:12:40;16.75;;;11.65;;
57667;SDS011;43499;52.366;12.912;2022-09-09T02:13:47;14.82;;;9.90;;
57667;SDS011;43499;52.366;12.912;2022-09-09T02:14:55;18.10;;;10.98;;
57667;SDS011;43499;52.366;12.912;2022-09-09T02:17:09;22.63;;;10.50;;
57667;SDS011;43499;52.366;12.912;2022-09-09T02:18:39;17.75;;;10.73;;
57667;SDS011;43499;52.366;12.912;2022-09-09T02:20:12;17.10;;;11.75;;
57667;SDS011;43499;52.366;12.912;2022-09-09T02:21:26;15.70;;;9.65;;
57667;SDS011;43499;52.366;12.912;2022-09-09T02:22:31;14.93;;;9.82;;
57667;SDS011;43499;52.366;12.912;2022-09-09T02:23:35;16.63;;;9.35;;
57667;SDS011;43499;52.366;12.912;2022-09-09T02:24:41;17.65;;;10.20;;
57667;SDS011;43499;52.366;12.912;2022-09-09T02:25:55;16.55;;;9.25;;
57667;SDS011;43499;52.366;12.912;2022-09-09T02:27:00;13.30;;;9.05;;
57667;SDS011;43499;52.366;12.912;2022-09-09T02:28:06;19.10;;;9.75;;
57667;SDS011;43499;52.366;12.912;2022-09-09T02:29:17;22.08;;;10.65;;
57667;SDS011;43499;52.366;12.912;2022-09-09T02:30:23;14.10;;;9.27;;
57667;SDS011;43499;52.366;12.912;2022-09-09T02:31:30;14.98;;;9.80;;
57667;SDS011;43499;52.366;12.912;2022-09-09T02:32:38;18.30;;;10.05;;
57667;SDS011;43499;52.366;12.912;2022-09-09T02:33:46;16.13;;;10.45;;
57667;SDS011;43499;52.366;12.912;2022-09-09T02:34:57;20.08;;;9.73;;
57667;SDS011;43499;52.366;12.912;2022-09-09T02:36:02;18.05;;;10.38;;
57667;SDS011;43499;52.366;12.912;2022-09-09T02:37:07;17.85;;;10.85;;
57667;SDS011;43499;52.366;12.912;2022-09-09T02:38:13;21.10;;;11.00;;
57667;SDS011;43499;52.366;12.912;2022-09-09T02:39:25;17.20;;;9.90;;
57667;SDS011;43499;52.366;12.912;2022-09-09T02:40:26;15.93;;;10.25;;
57667;SDS011;43499;52.366;12.912;2022-09-09T02:41:34;16.65;;;9.45;;
57667;SDS011;43499;52.366;12.912;2022-09-09T02:42:40;14.85;;;8.90;;
57667;SDS011;43499;52.366;12.912;2022-09-09T02:43:42;13.50;;;9.57;;
57667;SDS011;43499;52.366;12.912;2022-09-09T02:44:47;16.05;;;9.70;;
57667;SDS011;43499;52.366;12.912;2022-09-09T02:47:09;17.20;;;8.50;;
57667;SDS011;43499;52.366;12.912;2022-09-09T02:48:43;19.67;;;9.88;;
57667;SDS011;43499;52.366;12.912;2022-09-09T02:50:17;15.45;;;8.45;;
57667;SDS011;43499;52.366;12.912;2022-09-09T02:51:27;19.05;;;8.93;;
57667;SDS011;43499;52.366;12.912;2022-09-09T02:52:42;17.50;;;8.50;;
57667;SDS011;43499;52.366;12.912;2022-09-09T02:53:54;13.13;;;8.23;;
57667;SDS011;43499;52.366;12.912;2022-09-09T02:55:12;14.45;;;8.70;;
57667;SDS011;43499;52.366;12.912;2022-09-09T02:56:54;13.35;;;8.60;;
57667;SDS011;43499;52.366;12.912;2022-09-09T02:58:04;26.40;;;9.10;;
57667;SDS011;43499;52.366;12.912;2022-09-09T02:59:09;12.45;;;7.70;;
57667;SDS011;43499;52.366;12.912;2022-09-09T03:00:11;13.27;;;8.75;;
57667;SDS011;43499;52.366;12.912;2022-09-09T03:01:13;14.93;;;8.23;;
57667;SDS011;43499;52.366;12.912;2022-09-09T03:02:17;17.75;;;8.45;;
57667;SDS011;43499;52.366;12.912;2022-09-09T03:03:53;12.60;;;7.45;;
57667;SDS011;43499;52.366;12.912;2022-09-09T03:04:55;11.10;;;7.40;;
57667;SDS011;43499;52.366;12.912;2022-09-09T03:05:57;14.25;;;7.78;;
57667;SDS011;43499;52.366;12.912;2022-09-09T03:06:58;16.80;;;8.57;;
57667;SDS011;43499;52.366;12.912;2022-09-09T03:07:59;9.07;;;7.05;;
57667;SDS011;43499;52.366;12.912;2022-09-09T03:09:01;14.05;;;7.22;;
57667;SDS011;43499;52.366;12.912;2022-09-09T03:10:03;12.60;;;7.03;;
57667;SDS011;43499;52.366;12.912;2022-09-09T03:11:06;11.73;;;7.28;;
57667;SDS011;43499;52.366;12.912;2022-09-09T03:12:11;13.60;;;7.97;;
57667;SDS011;43499;52.366;12.912;2022-09-09T03:13:13;11.40;;;7.00;;
57667;SDS011;43499;52.366;12.912;2022-09-09T03:14:16;11.95;;;7.45;;
57667;SDS011;43499;52.366;12.912;2022-09-09T03:15:17;15.05;;;7.25;;
57667;SDS011;43499;52.366;12.912;2022-09-09T03:16:19;12.63;;;7.97;;
57667;SDS011;43499;52.366;12.912;2022-09-09T03:17:23;12.80;;;7.32;;
57667;SDS011;43499;52.366;12.912;2022-09-09T03:18:28;9.45;;;6.72;;
57667;SDS011;43499;52.366;12.912;2022-09-09T03:19:30;10.52;;;6.57;;
57667;SDS011;43499;52.366;12.912;2022-09-09T03:20:32;13.55;;;7.13;;
57667;SDS011;43499;52.366;12.912;2022-09-09T03:21:33;12.32;;;7.20;;
57667;SDS011;43499;52.366;12.912;2022-09-09T03:22:34;10.98;;;6.10;;
57667;SDS011;43499;52.366;12.912;2022-09-09T03:23:38;15.55;;;8.52;;
57667;SDS011;43499;52.366;12.912;2022-09-09T03:24:56;14.02;;;7.00;;
57667;SDS011;43499;52.366;12.912;2022-09-09T03:25:57;10.15;;;6.85;;
57667;SDS011;43499;52.366;12.912;2022-09-09T03:27:11;9.00;;;6.22;;
57667;SDS011;43499;52.366;12.912;2022-09-09T03:28:24;15.40;;;7.70;;
57667;SDS011;43499;52.366;12.912;2022-09-09T03:29:36;15.93;;;7.25;;
57667;SDS011;43499;52.366;12.912;2022-09-09T03:30:40;11.05;;;6.10;;
57667;SDS011;43499;52.366;12.912;2022-09-09T03:31:41;9.80;;;6.50;;
57667;SDS011;43499;52.366;12.912;2022-09-09T03:32:46;11.70;;;6.20;;
57667;SDS011;43499;52.366;12.912;2022-09-09T03:34:19;13.18;;;5.82;;
57667;SDS011;43499;52.366;12.912;2022-09-09T03:35:32;9.02;;;6.22;;
57667;SDS011;43499;52.366;12.912;2022-09-09T03:36:36;8.55;;;5.60;;
57667;SDS011;43499;52.366;12.912;2022-09-09T03:37:52;14.93;;;6.32;;
57667;SDS011;43499;52.366;12.912;2022-09-09T03:39:11;11.73;;;5.63;;
57667;SDS011;43499;52.366;12.912;2022-09-09T03:40:50;8.45;;;6.22;;
57667;SDS011;43499;52.366;12.912;2022-09-09T03:41:52;12.23;;;5.82;;
57667;SDS011;43499;52.366;12.912;2022-09-09T03:42:55;8.77;;;6.03;;
57667;SDS011;43499;52.366;12.912;2022-09-09T03:43:56;11.65;;;5.80;;
57667;SDS011;43499;52.366;12.912;2022-09-09T03:44:59;17.35;;;7.43;;
57667;SDS011;43499;52.366;12.912;2022-09-09T03:46:24;7.45;;;5.35;;
57667;SDS011;43499;52.366;12.912;2022-09-09T03:47:38;8.18;;;5.72;;
57667;SDS011;43499;52.366;12.912;2022-09-09T03:48:46;11.88;;;6.03;;
57667;SDS011;43499;52.366;12.912;2022-09-09T03:49:59;10.38;;;5.57;;
57667;SDS011;43499;52.366;12.912;2022-09-09T03:51:00;10.63;;;5.63;;
57667;SDS011;43499;52.366;12.912;2022-09-09T03:52:02;10.30;;;5.93;;
57667;SDS011;43499;52.366;12.912;2022-09-09T03:53:04;9.85;;;6.15;;
57667;SDS011;43499;52.366;12.912;2022-09-09T03:54:09;8.82;;;5.80;;
57667;SDS011;43499;52.366;12.912;2022-09-09T03:55:30;10.35;;;5.00;;
57667;SDS011;43499;52.366;12.912;2022-09-09T03:56:36;10.18;;;5.32;;
57667;SDS011;43499;52.366;12.912;2022-09-09T03:57:50;10.60;;;5.78;;
57667;SDS011;43499;52.366;12.912;2022-09-09T03:59:01;15.13;;;6.25;;
57667;SDS011;43499;52.366;12.912;2022-09-09T04:00:04;13.70;;;5.47;;
57667;SDS011;43499;52.366;12.912;2022-09-09T04:01:19;11.02;;;5.72;;
57667;SDS011;43499;52.366;12.912;2022-09-09T04:03:06;8.63;;;6.10;;
57667;SDS011;43499;52.366;12.912;2022-09-09T04:04:37;8.57;;;5.47;;
57667;SDS011;43499;52.366;12.912;2022-09-09T04:05:39;14.45;;;6.28;;
57667;SDS011;43499;52.366;12.912;2022-09-09T04:06:42;10.82;;;6.13;;
57667;SDS011;43499;52.366;12.912;2022-09-09T04:07:43;9.55;;;5.65;;
57667;SDS011;43499;52.366;12.912;2022-09-09T04:08:45;12.48;;;5.60;;
57667;SDS011;43499;52.366;12.912;2022-09-09T04:09:54;9.73;;;5.20;;
57667;SDS011;43499;52.366;12.912;2022-09-09T04:11:04;6.80;;;5.18;;
57667;SDS011;43499;52.366;12.912;2022-09-09T04:12:07;7.15;;;5.97;;
57667;SDS011;43499;52.366;12.912;2022-09-09T04:13:09;10.60;;;5.80;;
57667;SDS011;43499;52.366;12.912;2022-09-09T04:14:10;6.85;;;4.63;;
57667;SDS011;43499;52.366;12.912;2022-09-09T04:15:11;8.88;;;4.97;;
57667;SDS011;43499;52.366;12.912;2022-09-09T04:16:13;8.00;;;5.45;;
57667;SDS011;43499;52.366;12.912;2022-09-09T04:17:16;7.60;;;5.40;;
57667;SDS011;43499;52.366;12.912;2022-09-09T04:18:18;12.23;;;6.00;;
57667;SDS011;43499;52.366;12.912;2022-09-09T04:19:21;8.32;;;5.72;;
57667;SDS011;43499;52.366;12.912;2022-09-09T04:20:22;9.85;;;5.53;;
57667;SDS011;43499;52.366;12.912;2022-09-09T04:21:24;13.15;;;6.13;;
57667;SDS011;43499;52.366;12.912;2022-09-09T04:22:25;10.20;;;5.53;;
57667;SDS011;43499;52.366;12.912;2022-09-09T04:23:27;9.65;;;5.82;;
57667;SDS011;43499;52.366;12.912;2022-09-09T04:24:33;9.45;;;5.50;;
57667;SDS011;43499;52.366;12.912;2022-09-09T04:25:35;10.68;;;5.70;;
57667;SDS011;43499;52.366;12.912;2022-09-09T04:26:37;9.13;;;5.60;;
57667;SDS011;43499;52.366;12.912;2022-09-09T04:27:38;7.82;;;5.53;;
57667;SDS011;43499;52.366;12.912;2022-09-09T04:28:39;12.13;;;5.47;;
57667;SDS011;43499;52.366;12.912;2022-09-09T04:29:46;14.25;;;5.63;;
57667;SDS011;43499;52.366;12.912;2022-09-09T04:30:50;14.77;;;5.93;;
57667;SDS011;43499;52.366;12.912;2022-09-09T04:31:53;7.72;;;5.30;;
57667;SDS011;43499;52.366;12.912;2022-09-09T04:32:54;14.82;;;5.60;;
57667;SDS011;43499;52.366;12.912;2022-09-09T04:33:55;10.57;;;5.53;;
57667;SDS011;43499;52.366;12.912;2022-09-09T04:34:57;16.95;;;5.65;;
57667;SDS011;43499;52.366;12.912;2022-09-09T04:36:08;9.35;;;5.20;;
57667;SDS011;43499;52.366;12.912;2022-09-09T04:37:49;10.32;;;5.20;;
57667;SDS011;43499;52.366;12.912;2022-09-09T04:39:23;9.05;;;4.85;;
57667;SDS011;43499;52.366;12.912;2022-09-09T04:41:41;13.68;;;5.40;;
57667;SDS011;43499;52.366;12.912;2022-09-09T04:42:48;7.70;;;5.32;;
57667;SDS011;43499;52.366;12.912;2022-09-09T04:44:06;8.52;;;4.80;;
57667;SDS011;43499;52.366;12.912;2022-09-09T04:45:08;7.47;;;5.28;;
57667;SDS011;43499;52.366;12.912;2022-09-09T04:46:11;8.25;;;4.75;;
57667;SDS011;43499;52.366;12.912;2022-09-09T04:47:12;8.95;;;4.57;;
57667;SDS011;43499;52.366;12.912;2022-09-09T04:50:38;8.52;;;4.85;;
57667;SDS011;43499;52.366;12.912;2022-09-09T04:51:48;11.88;;;5.25;;
57667;SDS011;43499;52.366;12.912;2022-09-09T04:53:03;9.27;;;4.70;;
57667;SDS011;43499;52.366;12.912;2022-09-09T04:54:06;17.58;;;5.10;;
57667;SDS011;43499;52.366;12.912;2022-09-09T04:55:07;10.30;;;5.07;;
57667;SDS011;43499;52.366;12.912;2022-09-09T04:56:11;9.30;;;4.90;;
57667;SDS011;43499;52.366;12.912;2022-09-09T04:57:18;12.73;;;5.35;;
57667;SDS011;43499;52.366;12.912;2022-09-09T04:58:20;12.48;;;5.15;;
57667;SDS011;43499;52.366;12.912;2022-09-09T04:59:23;9.68;;;5.45;;
57667;SDS011;43499;52.366;12.912;2022-09-09T05:00:28;7.07;;;4.60;;
57667;SDS011;43499;52.366;12.912;2022-09-09T05:01:44;11.13;;;4.65;;
57667;SDS011;43499;52.366;12.912;2022-09-09T05:02:46;8.43;;;4.45;;
57667;SDS011;43499;52.366;12.912;2022-09-09T05:03:48;9.23;;;4.93;;
57667;SDS011;43499;52.366;12.912;2022-09-09T05:04:52;9.80;;;5.18;;
57667;SDS011;43499;52.366;12.912;2022-09-09T05:05:53;13.55;;;4.95;;
57667;SDS011;43499;52.366;12.912;2022-09-09T05:06:55;10.02;;;4.30;;
57667;SDS011;43499;52.366;12.912;2022-09-09T05:08:04;12.00;;;5.13;;
57667;SDS011;43499;52.366;12.912;2022-09-09T05:09:09;6.47;;;4.20;;
57667;SDS011;43499;52.366;12.912;2022-09-09T05:10:25;11.60;;;4.68;;
57667;SDS011;43499;52.366;12.912;2022-09-09T05:11:34;10.27;;;4.13;;
57667;SDS011;43499;52.366;12.912;2022-09-09T05:12:58;10.50;;;4.80;;
57667;SDS011;43499;52.366;12.912;2022-09-09T05:14:01;10.55;;;4.63;;
57667;SDS011;43499;52.366;12.912;2022-09-09T05:15:05;10.70;;;4.85;;
57667;SDS011;43499;52.366;12.912;2022-09-09T05:16:06;13.13;;;4.85;;
57667;SDS011;43499;52.366;12.912;2022-09-09T05:17:08;7.75;;;4.10;;
57667;SDS011;43499;52.366;12.912;2022-09-09T05:18:13;10.43;;;4.53;;
57667;SDS011;43499;52.366;12.912;2022-09-09T05:19:15;8.30;;;4.20;;
57667;SDS011;43499;52.366;12.912;2022-09-09T05:20:22;10.18;;;4.25;;
57667;SDS011;43499;52.366;12.912;2022-09-09T05:21:23;8.80;;;4.40;;
57667;SDS011;43499;52.366;12.912;2022-09-09T05:22:27;7.22;;;4.18;;
57667;SDS011;43499;52.366;12.912;2022-09-09T05:23:28;7.72;;;4.90;;
57667;SDS011;43499;52.366;12.912;2022-09-09T05:24:29;5.40;;;4.05;;
57667;SDS011;43499;52.366;12.912;2022-09-09T05:25:33;14.07;;;4.57;;
57667;SDS011;43499;52.366;12.912;2022-09-09T05:28:29;12.18;;;4.22;;
57667;SDS011;43499;52.366;12.912;2022-09-09T05:29:45;6.00;;;3.95;;
57667;SDS011;43499;52.366;12.912;2022-09-09T05:31:00;6.55;;;3.95;;
57667;SDS011;43499;52.366;12.912;2022-09-09T05:32:12;8.75;;;4.47;;
57667;SDS011;43499;52.366;12.912;2022-09-09T05:33:24;9.43;;;4.18;;
57667;SDS011;43499;52.366;12.912;2022-09-09T05:34:29;13.32;;;5.05;;
57667;SDS011;43499;52.366;12.912;2022-09-09T05:35:30;7.47;;;3.88;;
57667;SDS011;43499;52.366;12.912;2022-09-09T05:36:31;12.38;;;4.65;;
57667;SDS011;43499;52.366;12.912;2022-09-09T05:39:26;7.43;;;4.00;;
57667;SDS011;43499;52.366;12.912;2022-09-09T05:42:22;5.82;;;3.78;;
57667;SDS011;43499;52.366;12.912;2022-09-09T05:43:50;7.20;;;3.70;;
57667;SDS011;43499;52.366;12.912;2022-09-09T05:45:02;8.63;;;3.70;;
57667;SDS011;43499;52.366;12.912;2022-09-09T05:46:17;10.13;;;3.40;;
57667;SDS011;43499;52.366;12.912;2022-09-09T05:47:24;6.07;;;4.00;;
57667;SDS011;43499;52.366;12.912;2022-09-09T05:48:43;9.52;;;4.22;;
57667;SDS011;43499;52.366;12.912;2022-09-09T05:52:03;10.02;;;4.25;;
57667;SDS011;43499;52.366;12.912;2022-09-09T05:53:08;11.52;;;4.68;;
57667;SDS011;43499;52.366;12.912;2022-09-09T05:54:16;9.65;;;3.75;;
57667;SDS011;43499;52.366;12.912;2022-09-09T05:55:20;5.78;;;3.63;;
57667;SDS011;43499;52.366;12.912;2022-09-09T05:56:22;6.40;;;3.60;;
57667;SDS011;43499;52.366;12.912;2022-09-09T05:57:26;11.23;;;3.53;;
57667;SDS011;43499;52.366;12.912;2022-09-09T05:58:27;9.70;;;4.00;;
57667;SDS011;43499;52.366;12.912;2022-09-09T05:59:28;6.43;;;3.33;;
57667;SDS011;43499;52.366;12.912;2022-09-09T06:00:31;5.82;;;3.85;;
57667;SDS011;43499;52.366;12.912;2022-09-09T06:01:34;9.02;;;3.53;;
57667;SDS011;43499;52.366;12.912;2022-09-09T06:02:37;11.32;;;3.75;;
57667;SDS011;43499;52.366;12.912;2022-09-09T06:03:40;7.10;;;3.55;;
57667;SDS011;43499;52.366;12.912;2022-09-09T06:04:42;8.60;;;3.90;;
57667;SDS011;43499;52.366;12.912;2022-09-09T06:05:43;12.55;;;3.85;;
57667;SDS011;43499;52.366;12.912;2022-09-09T06:06:44;8.88;;;3.30;;
57667;SDS011;43499;52.366;12.912;2022-09-09T06:07:52;7.78;;;3.42;;
57667;SDS011;43499;52.366;12.912;2022-09-09T06:08:54;6.35;;;3.40;;
57667;SDS011;43499;52.366;12.912;2022-09-09T06:09:58;4.57;;;3.50;;
57667;SDS011;43499;52.366;12.912;2022-09-09T06:11:09;6.88;;;4.03;;
57667;SDS011;43499;52.366;12.912;2022-09-09T06:12:12;9.27;;;3.22;;
57667;SDS011;43499;52.366;12.912;2022-09-09T06:13:13;10.05;;;3.53;;
57667;SDS011;43499;52.366;12.912;2022-09-09T06:14:15;6.47;;;3.33;;
57667;SDS011;43499;52.366;12.912;2022-09-09T06:15:20;5.75;;;3.00;;
57667;SDS011;43499;52.366;12.912;2022-09-09T06:16:23;9.82;;;3.42;;
57667;SDS011;43499;52.366;12.912;2022-09-09T06:17:28;10.35;;;3.25;;
57667;SDS011;43499;52.366;12.912;2022-09-09T06:18:29;6.85;;;3.08;;
57667;SDS011;43499;52.366;12.912;2022-09-09T06:19:30;5.32;;;2.80;;
57667;SDS011;43499;52.366;12.912;2022-09-09T06:20:33;9.93;;;3.67;;
57667;SDS011;43499;52.366;12.912;2022-09-09T06:21:36;5.60;;;3.25;;
57667;SDS011;43499;52.366;12.912;2022-09-09T06:22:39;6.78;;;3.25;;
57667;SDS011;43499;52.366;12.912;2022-09-09T06:23:41;10.10;;;3.70;;
57667;SDS011;43499;52.366;12.912;2022-09-09T06:24:44;9.35;;;3.47;;
57667;SDS011;43499;52.366;12.912;2022-09-09T06:25:45;4.30;;;3.22;;
57667;SDS011;43499;52.366;12.912;2022-09-09T06:26:46;14.70;;;3.78;;
57667;SDS011;43499;52.366;12.912;2022-09-09T06:27:53;9.63;;;4.00;;
57667;SDS011;43499;52.366;12.912;2022-09-09T06:28:54;7.03;;;3.38;;
57667;SDS011;43499;52.366;12.912;2022-09-09T06:29:58;13.70;;;4.60;;
57667;SDS011;43499;52.366;12.912;2022-09-09T06:31:03;8.75;;;3.60;;
57667;SDS011;43499;52.366;12.912;2022-09-09T06:32:09;6.07;;;3.60;;
57667;SDS011;43499;52.366;12.912;2022-09-09T06:33:10;6.40;;;3.30;;
57667;SDS011;43499;52.366;12.912;2022-09-09T06:35:50;6.15;;;3.55;;
57667;SDS011;43499;52.366;12.912;2022-09-09T06:36:54;8.32;;;3.75;;
57667;SDS011;43499;52.366;12.912;2022-09-09T06:37:58;7.75;;;3.72;;
57667;SDS011;43499;52.366;12.912;2022-09-09T06:38:59;14.32;;;3.20;;
57667;SDS011;43499;52.366;12.912;2022-09-09T06:40:01;4.97;;;2.83;;
57667;SDS011;43499;52.366;12.912;2022-09-09T06:41:03;5.60;;;3.22;;
57667;SDS011;43499;52.366;12.912;2022-09-09T06:42:04;7.78;;;3.20;;
57667;SDS011;43499;52.366;12.912;2022-09-09T06:43:29;9.43;;;3.67;;
57667;SDS011;43499;52.366;12.912;2022-09-09T06:44:30;6.90;;;3.15;;
57667;SDS011;43499;52.366;12.912;2022-09-09T06:45:32;9.75;;;2.95;;
57667;SDS011;43499;52.366;12.912;2022-09-09T06:46:33;8.50;;;3.20;;
57667;SDS011;43499;52.366;12.912;2022-09-09T06:47:36;15.93;;;4.82;;
57667;SDS011;43499;52.366;12.912;2022-09-09T06:48:39;6.95;;;3.15;;
57667;SDS011;43499;52.366;12.912;2022-09-09T06:49:46;11.98;;;4.03;;
57667;SDS011;43499;52.366;12.912;2022-09-09T06:50:47;8.68;;;3.33;;
57667;SDS011;43499;52.366;12.912;2022-09-09T06:51:50;6.97;;;2.58;;
57667;SDS011;43499;52.366;12.912;2022-09-09T06:52:52;5.43;;;2.85;;
57667;SDS011;43499;52.366;12.912;2022-09-09T06:53:54;8.45;;;2.90;;
57667;SDS011;43499;52.366;12.912;2022-09-09T06:54:58;13.50;;;3.30;;
57667;SDS011;43499;52.366;12.912;2022-09-09T06:56:51;3.13;;;2.15;;
57667;SDS011;43499;52.366;12.912;2022-09-09T06:57:57;7.57;;;3.20;;
57667;SDS011;43499;52.366;12.912;2022-09-09T06:58:59;3.42;;;2.40;;
57667;SDS011;43499;52.366;12.912;2022-09-09T07:00:04;4.28;;;2.50;;
57667;SDS011;43499;52.366;12.912;2022-09-09T07:01:06;6.20;;;2.90;;
57667;SDS011;43499;52.366;12.912;2022-09-09T07:04:49;5.70;;;2.88;;
57667;SDS011;43499;52.366;12.912;2022-09-09T07:05:58;7.75;;;2.55;;
57667;SDS011;43499;52.366;12.912;2022-09-09T07:07:13;4.65;;;2.78;;
57667;SDS011;43499;52.366;12.912;2022-09-09T07:08:16;6.45;;;2.60;;
57667;SDS011;43499;52.366;12.912;2022-09-09T07:09:18;7.03;;;2.70;;
57667;SDS011;43499;52.366;12.912;2022-09-09T07:10:22;7.28;;;2.70;;
57667;SDS011;43499;52.366;12.912;2022-09-09T07:11:23;8.70;;;2.85;;
57667;SDS011;43499;52.366;12.912;2022-09-09T07:12:27;6.97;;;2.50;;
57667;SDS011;43499;52.366;12.912;2022-09-09T07:13:35;5.40;;;3.05;;
57667;SDS011;43499;52.366;12.912;2022-09-09T07:14:42;4.03;;;2.70;;
57667;SDS011;43499;52.366;12.912;2022-09-09T07:17:12;7.30;;;2.75;;
57667;SDS011;43499;52.366;12.912;2022-09-09T07:18:24;5.43;;;2.75;;
57667;SDS011;43499;52.366;12.912;2022-09-09T07:19:36;7.13;;;2.92;;
57667;SDS011;43499;52.366;12.912;2022-09-09T07:20:42;4.35;;;2.70;;
57667;SDS011;43499;52.366;12.912;2022-09-09T07:22:00;7.80;;;3.65;;
57667;SDS011;43499;52.366;12.912;2022-09-09T07:23:12;7.78;;;2.85;;
57667;SDS011;43499;52.366;12.912;2022-09-09T07:24:42;7.40;;;2.80;;
57667;SDS011;43499;52.366;12.912;2022-09-09T07:25:59;10.05;;;3.20;;
57667;SDS011;43499;52.366;12.912;2022-09-09T07:27:01;6.63;;;3.08;;
57667;SDS011;43499;52.366;12.912;2022-09-09T07:28:03;7.60;;;3.15;;
57667;SDS011;43499;52.366;12.912;2022-09-09T07:29:04;5.22;;;3.20;;
57667;SDS011;43499;52.366;12.912;2022-09-09T07:30:06;10.32;;;2.83;;
57667;SDS011;43499;52.366;12.912;2022-09-09T07:31:15;5.57;;;3.17;;
57667;SDS011;43499;52.366;12.912;2022-09-09T07:32:27;9.00;;;2.95;;
57667;SDS011;43499;52.366;12.912;2022-09-09T07:33:33;8.25;;;3.17;;
57667;SDS011;43499;52.366;12.912;2022-09-09T07:34:34;12.13;;;3.53;;
57667;SDS011;43499;52.366;12.912;2022-09-09T07:35:36;11.18;;;3.53;;
57667;SDS011;43499;52.366;12.912;2022-09-09T07:36:43;6.97;;;3.00;;
57667;SDS011;43499;52.366;12.912;2022-09-09T07:37:53;8.65;;;3.60;;
57667;SDS011;43499;52.366;12.912;2022-09-09T07:39:02;7.72;;;3.88;;
57667;SDS011;43499;52.366;12.912;2022-09-09T07:40:20;10.07;;;4.13;;
57667;SDS011;43499;52.366;12.912;2022-09-09T07:41:33;10.98;;;3.80;;